createdAt,value
2023-02-19T00:01:45.440Z,13.30
2023-02-19T00:04:14.710Z,13.40
2023-02-19T00:06:42.153Z,13.40
2023-02-19T00:09:11.575Z,13.40
2023-02-19T00:11:38.533Z,13.40
2023-02-19T00:14:06.019Z,13.30
2023-02-19T00:16:35.768Z,13.30
2023-02-19T00:19:04.975Z,13.40
2023-02-19T00:21:32.053Z,13.40
2023-02-19T00:24:04.265Z,13.40
2023-02-19T00:26:31.307Z,13.40
2023-02-19T00:28:59.001Z,13.40
2023-02-19T00:31:33.447Z,13.40
2023-02-19T00:34:03.861Z,13.40
2023-02-19T00:36:31.566Z,13.40
2023-02-19T00:38:58.734Z,13.40
2023-02-19T00:41:26.070Z,13.40
2023-02-19T00:43:58.023Z,13.40
2023-02-19T00:46:30.618Z,13.40
2023-02-19T00:48:57.945Z,13.60
2023-02-19T00:51:27.706Z,13.50
2023-02-19T00:53:54.555Z,13.50
2023-02-19T00:56:21.487Z,13.40
2023-02-19T00:58:48.848Z,13.40
2023-02-19T01:01:15.954Z,13.50
2023-02-19T01:03:43.110Z,13.50
2023-02-19T01:06:12.041Z,13.40
2023-02-19T01:08:39.076Z,13.50
2023-02-19T01:11:07.255Z,13.50
2023-02-19T01:13:35.079Z,13.50
2023-02-19T01:16:16.947Z,13.50
2023-02-19T01:18:44.227Z,13.50
2023-02-19T01:21:25.759Z,13.50
2023-02-19T01:23:54.042Z,13.50
2023-02-19T01:26:23.421Z,13.50
2023-02-19T01:28:50.088Z,13.50
2023-02-19T01:31:19.897Z,13.50
2023-02-19T01:33:48.450Z,13.50
2023-02-19T01:36:16.031Z,13.50
2023-02-19T01:38:42.822Z,13.50
2023-02-19T01:41:16.480Z,13.50
2023-02-19T01:44:02.498Z,13.50
2023-02-19T01:46:34.161Z,13.40
2023-02-19T01:49:09.962Z,13.40
2023-02-19T01:51:41.169Z,13.50
2023-02-19T01:54:10.497Z,13.50
2023-02-19T01:56:40.384Z,13.50
2023-02-19T01:59:07.595Z,13.50
2023-02-19T02:01:35.816Z,13.50
2023-02-19T02:04:03.640Z,13.50
2023-02-19T02:06:53.383Z,13.40
2023-02-19T02:09:41.693Z,13.50
2023-02-19T02:12:09.513Z,13.50
2023-02-19T02:14:39.297Z,13.50
2023-02-19T02:17:26.340Z,13.50
2023-02-19T02:20:18.038Z,13.40
2023-02-19T02:23:06.066Z,13.40
2023-02-19T02:25:36.746Z,13.40
2023-02-19T02:28:22.222Z,13.40
2023-02-19T02:31:07.582Z,13.40
2023-02-19T02:34:04.741Z,13.40
2023-02-19T02:36:37.255Z,13.40
2023-02-19T02:39:07.700Z,13.40
2023-02-19T02:41:43.797Z,13.40
2023-02-19T02:44:11.058Z,13.40
2023-02-19T02:46:41.809Z,13.40
2023-02-19T02:49:16.744Z,13.40
2023-02-19T02:51:50.587Z,13.40
2023-02-19T02:54:44.824Z,13.40
2023-02-19T02:57:15.144Z,13.40
2023-02-19T02:59:49.047Z,13.40
2023-02-19T03:02:23.800Z,13.40
2023-02-19T03:05:33.785Z,13.40
2023-02-19T03:08:19.199Z,13.40
2023-02-19T03:10:50.750Z,13.40
2023-02-19T03:13:49.762Z,13.40
2023-02-19T03:16:49.602Z,13.30
2023-02-19T03:19:19.687Z,13.30
2023-02-19T03:21:52.030Z,13.30
2023-02-19T03:24:41.295Z,13.30
2023-02-19T03:27:11.226Z,13.30
2023-02-19T03:29:44.767Z,13.30
2023-02-19T03:32:18.664Z,13.30
2023-02-19T03:34:53.874Z,13.30
2023-02-19T03:37:38.492Z,13.30
2023-02-19T03:40:05.928Z,13.30
2023-02-19T03:42:56.187Z,13.30
2023-02-19T03:45:42.787Z,13.20
2023-02-19T03:48:28.893Z,13.20
2023-02-19T03:51:09.786Z,13.20
2023-02-19T03:53:53.657Z,13.20
2023-02-19T03:56:32.045Z,13.20
2023-02-19T03:59:08.820Z,13.20
2023-02-19T04:01:38.224Z,13.20
2023-02-19T04:04:15.568Z,13.20
2023-02-19T04:06:46.499Z,13.20
2023-02-19T04:09:15.308Z,13.20
2023-02-19T04:11:48.383Z,13.20
2023-02-19T04:14:26.359Z,13.20
2023-02-19T04:17:03.026Z,13.20
2023-02-19T04:19:33.372Z,13.10
2023-02-19T04:22:01.481Z,13.10
2023-02-19T04:24:47.250Z,13.10
2023-02-19T04:27:14.674Z,13.10
2023-02-19T04:29:41.869Z,13.10
2023-02-19T04:32:11.308Z,13.10
2023-02-19T04:34:37.949Z,13.10
2023-02-19T04:37:05.178Z,13.10
2023-02-19T04:39:31.969Z,13.10
2023-02-19T04:41:58.657Z,13.10
2023-02-19T04:44:25.381Z,13.10
2023-02-19T04:46:52.099Z,13.10
2023-02-19T04:49:18.878Z,13.00
2023-02-19T04:51:45.612Z,13.10
2023-02-19T04:54:12.287Z,13.00
2023-02-19T04:56:39.731Z,13.00
2023-02-19T04:59:06.408Z,13.00
2023-02-19T05:01:33.096Z,13.00
2023-02-19T05:03:59.743Z,13.00
2023-02-19T05:06:27.311Z,13.00
2023-02-19T05:08:53.998Z,13.00
2023-02-19T05:11:20.766Z,13.00
2023-02-19T05:13:47.491Z,13.00
2023-02-19T05:16:16.073Z,13.00
2023-02-19T05:18:44.970Z,13.00
2023-02-19T05:21:12.674Z,13.00
2023-02-19T05:23:39.853Z,13.00
2023-02-19T05:26:09.007Z,13.00
2023-02-19T05:28:36.008Z,13.00
2023-02-19T05:31:07.999Z,13.00
2023-02-19T05:33:35.203Z,13.00
2023-02-19T05:36:07.397Z,13.00
2023-02-19T05:38:34.562Z,13.00
2023-02-19T05:41:09.909Z,13.00
2023-02-19T05:43:38.246Z,13.00
2023-02-19T05:46:06.429Z,12.90
2023-02-19T05:48:33.884Z,13.00
2023-02-19T05:51:06.174Z,12.90
2023-02-19T05:53:33.447Z,12.90
2023-02-19T05:56:00.231Z,12.90
2023-02-19T05:58:27.333Z,12.90
2023-02-19T06:00:54.974Z,12.90
2023-02-19T06:03:22.403Z,12.90
2023-02-19T06:05:49.132Z,12.90
2023-02-19T06:08:16.204Z,12.90
2023-02-19T06:10:44.262Z,12.90
2023-02-19T06:13:11.324Z,12.90
2023-02-19T06:15:38.446Z,12.90
2023-02-19T06:18:05.167Z,12.90
2023-02-19T06:20:32.858Z,12.90
2023-02-19T06:22:59.535Z,12.90
2023-02-19T06:25:26.226Z,12.90
2023-02-19T06:27:52.884Z,12.90
2023-02-19T06:30:19.778Z,12.90
2023-02-19T06:32:46.470Z,12.90
2023-02-19T06:35:13.112Z,12.90
2023-02-19T06:37:39.732Z,12.80
2023-02-19T06:40:06.885Z,12.80
2023-02-19T06:42:33.604Z,12.80
2023-02-19T06:45:00.337Z,12.80
2023-02-19T06:47:30.077Z,12.80
2023-02-19T06:49:56.696Z,12.80
2023-02-19T06:52:24.365Z,12.80
2023-02-19T06:54:50.980Z,12.80
2023-02-19T06:57:18.906Z,12.80
2023-02-19T06:59:46.291Z,12.80
2023-02-19T07:02:13.204Z,12.80
2023-02-19T07:04:40.049Z,12.80
2023-02-19T07:07:06.682Z,12.80
2023-02-19T07:09:33.329Z,12.80
2023-02-19T07:12:00.008Z,12.80
2023-02-19T07:14:26.693Z,12.70
2023-02-19T07:16:53.388Z,12.70
2023-02-19T07:19:20.114Z,12.80
2023-02-19T07:21:46.818Z,12.80
2023-02-19T07:24:13.547Z,12.80
2023-02-19T07:26:40.203Z,12.80
2023-02-19T07:29:07.479Z,12.80
2023-02-19T07:31:34.234Z,12.70
2023-02-19T07:34:01.031Z,12.70
2023-02-19T07:36:27.806Z,12.70
2023-02-19T07:38:58.882Z,12.70
2023-02-19T07:41:27.155Z,12.70
2023-02-19T07:43:56.951Z,12.70
2023-02-19T07:46:24.011Z,12.70
2023-02-19T07:48:50.743Z,12.70
2023-02-19T07:51:19.408Z,12.70
2023-02-19T07:53:46.876Z,12.70
2023-02-19T07:56:13.933Z,12.70
2023-02-19T07:58:40.807Z,12.70
2023-02-19T08:01:18.542Z,12.60
2023-02-19T08:03:45.901Z,12.60
2023-02-19T08:06:12.912Z,12.50
2023-02-19T08:08:39.977Z,12.40
2023-02-19T08:11:26.326Z,12.50
2023-02-19T08:13:53.604Z,12.40
2023-02-19T08:16:33.258Z,12.30
2023-02-19T08:19:03.778Z,12.20
2023-02-19T08:21:31.644Z,12.20
2023-02-19T08:23:59.406Z,12.10
2023-02-19T08:26:25.992Z,12.00
2023-02-19T08:28:52.592Z,11.90
2023-02-19T08:31:19.374Z,11.80
2023-02-19T08:33:46.086Z,11.70
2023-02-19T08:36:12.788Z,11.60
2023-02-19T08:38:39.486Z,11.50
2023-02-19T08:41:12.409Z,11.40
2023-02-19T08:43:40.858Z,11.40
2023-02-19T08:46:10.103Z,11.40
2023-02-19T08:48:37.636Z,11.30
2023-02-19T08:51:08.327Z,11.20
2023-02-19T08:53:37.411Z,11.20
2023-02-19T08:56:17.670Z,11.20
2023-02-19T08:58:44.711Z,11.10
2023-02-19T09:01:13.923Z,11.10
2023-02-19T09:03:41.381Z,11.10
2023-02-19T09:06:11.284Z,11.10
2023-02-19T09:08:38.111Z,11.10
2023-02-19T09:11:06.885Z,11.00
2023-02-19T09:13:33.671Z,11.00
2023-02-19T09:16:00.428Z,11.00
2023-02-19T09:18:27.327Z,11.00
2023-02-19T09:20:54.006Z,11.00
2023-02-19T09:23:20.730Z,11.00
2023-02-19T09:25:47.464Z,11.00
2023-02-19T09:28:14.143Z,11.00
2023-02-19T09:30:40.764Z,11.00
2023-02-19T09:33:07.439Z,11.00
2023-02-19T09:35:34.079Z,10.90
2023-02-19T09:38:01.956Z,10.90
2023-02-19T09:40:30.277Z,10.90
2023-02-19T09:42:57.478Z,10.80
2023-02-19T09:45:26.131Z,10.80
2023-02-19T09:47:57.875Z,10.70
2023-02-19T09:50:39.126Z,10.70
2023-02-19T09:53:19.569Z,10.70
2023-02-19T09:55:46.302Z,10.60
2023-02-19T09:58:25.655Z,10.60
2023-02-19T10:00:54.033Z,10.50
2023-02-19T10:03:34.129Z,10.50
2023-02-19T10:06:14.352Z,10.50
2023-02-19T10:08:41.847Z,10.50
2023-02-19T10:11:12.432Z,10.50
2023-02-19T10:13:47.051Z,10.50
2023-02-19T10:16:24.692Z,10.50
2023-02-19T10:18:51.488Z,10.50
2023-02-19T10:21:21.788Z,10.50
2023-02-19T10:23:53.252Z,10.50
2023-02-19T10:26:20.190Z,10.50
2023-02-19T10:28:46.848Z,10.50
2023-02-19T10:31:21.030Z,10.50
2023-02-19T10:33:53.188Z,10.60
2023-02-19T10:36:22.827Z,10.60
2023-02-19T10:38:49.584Z,10.60
2023-02-19T10:41:20.772Z,10.70
2023-02-19T10:44:19.112Z,10.60
2023-02-19T10:46:49.417Z,10.70
2023-02-19T10:49:32.544Z,10.70
2023-02-19T10:52:10.232Z,10.70
2023-02-19T10:54:37.006Z,10.70
2023-02-19T10:57:18.828Z,10.80
2023-02-19T10:59:58.015Z,10.80
2023-02-19T11:02:25.699Z,10.80
2023-02-19T11:05:15.011Z,10.80
2023-02-19T11:07:50.552Z,10.80
2023-02-19T11:10:39.845Z,10.90
2023-02-19T11:13:13.880Z,10.90
2023-02-19T11:15:41.553Z,10.90
2023-02-19T11:18:22.530Z,11.00
2023-02-19T11:20:58.126Z,11.00
2023-02-19T11:23:35.893Z,11.10
2023-02-19T11:26:07.241Z,11.20
2023-02-19T11:28:33.904Z,11.20
2023-02-19T11:31:19.524Z,11.30
2023-02-19T11:34:29.744Z,11.30
2023-02-19T11:37:16.958Z,11.40
2023-02-19T11:39:46.478Z,11.40
2023-02-19T11:42:31.686Z,11.50
2023-02-19T11:45:13.384Z,11.50
2023-02-19T11:48:03.485Z,11.60
2023-02-19T11:50:51.707Z,11.70
2023-02-19T11:53:26.285Z,11.80
2023-02-19T11:56:12.199Z,11.80
2023-02-19T11:59:02.087Z,12.00
2023-02-19T12:01:31.813Z,12.10
2023-02-19T12:04:37.685Z,12.10
2023-02-19T12:07:32.813Z,12.20
2023-02-19T12:10:20.734Z,12.30
2023-02-19T12:13:09.157Z,12.30
2023-02-19T12:15:58.545Z,12.40
2023-02-19T12:18:50.174Z,12.40
2023-02-19T12:21:43.749Z,12.50
2023-02-19T12:24:47.370Z,12.50
2023-02-19T12:27:20.632Z,12.50
2023-02-19T12:30:02.030Z,12.60
2023-02-19T12:33:00.643Z,12.60
2023-02-19T12:35:46.207Z,12.60
2023-02-19T12:38:45.016Z,12.70
2023-02-19T12:41:14.836Z,12.70
2023-02-19T12:43:53.775Z,12.70
2023-02-19T12:46:38.401Z,12.70
2023-02-19T12:49:28.355Z,12.70
2023-02-19T12:52:03.134Z,12.80
2023-02-19T12:54:35.937Z,12.80
2023-02-19T12:57:15.422Z,12.80
2023-02-19T13:00:26.390Z,12.90
2023-02-19T13:03:20.654Z,12.90
2023-02-19T13:05:52.712Z,12.90
2023-02-19T13:08:26.180Z,13.00
2023-02-19T13:11:11.128Z,12.90
2023-02-19T13:13:44.057Z,13.00
2023-02-19T13:16:20.560Z,13.00
2023-02-19T13:18:51.795Z,13.00
2023-02-19T13:21:40.392Z,13.00
2023-02-19T13:24:16.117Z,13.00
2023-02-19T13:27:13.135Z,13.00
2023-02-19T13:30:04.075Z,13.10
2023-02-19T13:32:33.749Z,13.10
2023-02-19T13:35:15.230Z,13.10
2023-02-19T13:37:42.579Z,13.10
2023-02-19T13:40:21.560Z,13.10
2023-02-19T13:42:54.648Z,13.20
2023-02-19T13:45:27.781Z,13.20
2023-02-19T13:47:54.356Z,13.20
2023-02-19T13:50:24.738Z,13.20
2023-02-19T13:52:53.409Z,13.20
2023-02-19T13:55:50.752Z,13.20
2023-02-19T13:58:37.781Z,13.20
2023-02-19T14:01:07.181Z,13.30
2023-02-19T14:04:07.684Z,13.30
2023-02-19T14:07:05.378Z,13.30
2023-02-19T14:09:39.769Z,13.30
2023-02-19T14:12:16.069Z,13.30
2023-02-19T14:14:46.757Z,13.30
2023-02-19T14:17:42.477Z,13.30
2023-02-19T14:20:09.138Z,13.30
2023-02-19T14:23:01.309Z,13.30
2023-02-19T14:25:30.624Z,13.30
2023-02-19T14:28:18.957Z,13.30
2023-02-19T14:31:18.567Z,13.30
2023-02-19T14:33:52.191Z,13.30
2023-02-19T14:36:36.402Z,13.30
2023-02-19T14:39:26.041Z,13.30
2023-02-19T14:41:59.738Z,13.30
2023-02-19T14:44:32.382Z,13.30
2023-02-19T14:47:23.995Z,13.30
2023-02-19T14:49:59.571Z,13.30
2023-02-19T14:52:47.544Z,13.30
2023-02-19T14:55:36.196Z,13.30
2023-02-19T14:58:31.422Z,13.30
2023-02-19T15:00:58.163Z,13.30
2023-02-19T15:03:34.299Z,13.30
2023-02-19T15:06:23.332Z,13.20
2023-02-19T15:08:58.361Z,13.20
2023-02-19T15:11:27.228Z,13.20
2023-02-19T15:14:01.014Z,13.20
2023-02-19T15:16:30.280Z,13.20
2023-02-19T15:18:59.384Z,13.20
2023-02-19T15:21:32.256Z,13.10
2023-02-19T15:24:03.389Z,13.10
2023-02-19T15:26:38.650Z,13.10
2023-02-19T15:29:11.385Z,13.10
2023-02-19T15:31:46.196Z,13.10
2023-02-19T15:34:30.922Z,13.00
2023-02-19T15:37:01.068Z,13.10
2023-02-19T15:39:38.100Z,13.00
2023-02-19T15:42:06.656Z,13.00
2023-02-19T15:44:49.915Z,13.00
2023-02-19T15:47:33.389Z,13.00
2023-02-19T15:50:18.427Z,12.90
2023-02-19T15:53:00.842Z,12.90
2023-02-19T15:55:40.505Z,12.90
2023-02-19T15:58:15.932Z,12.90
2023-02-19T16:00:48.366Z,12.80
2023-02-19T16:03:23.296Z,12.80
2023-02-19T16:06:14.695Z,12.80
2023-02-19T16:09:01.902Z,12.80
2023-02-19T16:11:53.119Z,12.80
2023-02-19T16:14:33.528Z,12.80
2023-02-19T16:17:28.127Z,12.70
2023-02-19T16:20:00.595Z,12.70
2023-02-19T16:22:31.777Z,12.60
2023-02-19T16:25:02.464Z,12.60
2023-02-19T16:27:35.599Z,12.60
2023-02-19T16:30:08.943Z,12.60
2023-02-19T16:32:35.675Z,12.60
2023-02-19T16:35:02.452Z,12.50
2023-02-19T16:37:40.893Z,12.50
2023-02-19T16:40:07.726Z,12.50
2023-02-19T16:42:36.325Z,12.50
2023-02-19T16:45:03.076Z,12.50
2023-02-19T16:47:41.571Z,12.20
2023-02-19T16:50:14.646Z,12.40
2023-02-19T16:52:56.502Z,12.40
2023-02-19T16:55:23.540Z,12.40
2023-02-19T16:57:50.427Z,12.40
2023-02-19T17:00:37.399Z,12.40
2023-02-19T17:03:09.168Z,12.30
2023-02-19T17:05:37.447Z,12.30
2023-02-19T17:08:28.243Z,12.30
2023-02-19T17:10:56.219Z,12.30
2023-02-19T17:13:22.964Z,12.20
2023-02-19T17:15:49.658Z,12.20
2023-02-19T17:18:17.711Z,12.20
2023-02-19T17:20:48.655Z,12.20
2023-02-19T17:23:15.400Z,12.10
2023-02-19T17:25:42.132Z,12.20
2023-02-19T17:30:57.357Z,12.10
2023-02-19T17:33:23.982Z,12.10
2023-02-19T17:35:50.664Z,12.10
2023-02-19T17:38:17.273Z,12.00
2023-02-19T17:40:45.113Z,12.00
2023-02-19T17:43:11.786Z,12.00
2023-02-19T17:45:38.575Z,12.00
2023-02-19T17:48:06.555Z,12.00
2023-02-19T17:50:33.301Z,12.00
2023-02-19T17:52:59.965Z,12.00
2023-02-19T17:55:26.659Z,11.90
2023-02-19T17:57:53.615Z,11.90
2023-02-19T18:00:24.070Z,11.90
2023-02-19T18:02:50.868Z,11.90
2023-02-19T18:05:18.094Z,11.90
2023-02-19T18:07:46.428Z,11.90
2023-02-19T18:10:14.731Z,11.80
2023-02-19T18:12:41.380Z,11.80
2023-02-19T18:15:09.065Z,11.80
2023-02-19T18:17:35.864Z,11.80
2023-02-19T18:20:04.593Z,11.80
2023-02-19T18:22:32.173Z,11.80
2023-02-19T18:24:59.116Z,11.80
2023-02-19T18:27:25.983Z,11.80
2023-02-19T18:29:54.772Z,11.70
2023-02-19T18:32:23.321Z,11.80
2023-02-19T18:34:51.806Z,11.80
2023-02-19T18:37:19.714Z,11.70
2023-02-19T18:39:46.447Z,11.70
2023-02-19T18:42:13.731Z,11.70
2023-02-19T18:44:40.859Z,11.70
2023-02-19T18:47:08.741Z,11.70
2023-02-19T18:49:35.645Z,11.70
2023-02-19T18:52:02.516Z,11.70
2023-02-19T18:54:30.595Z,11.70
2023-02-19T18:56:58.165Z,11.70
2023-02-19T18:59:24.839Z,11.60
2023-02-19T19:01:51.934Z,11.60
2023-02-19T19:04:18.898Z,11.60
2023-02-19T19:06:45.594Z,11.60
2023-02-19T19:09:12.553Z,11.60
2023-02-19T19:11:39.284Z,11.60
2023-02-19T19:14:05.991Z,11.60
2023-02-19T19:16:32.642Z,11.60
2023-02-19T19:18:59.579Z,11.50
2023-02-19T19:21:26.377Z,11.50
2023-02-19T19:23:53.090Z,11.50
2023-02-19T19:26:19.998Z,11.50
2023-02-19T19:28:46.630Z,11.50
2023-02-19T19:31:15.602Z,11.50
2023-02-19T19:33:43.617Z,11.40
2023-02-19T19:36:11.349Z,11.40
2023-02-19T19:38:38.106Z,11.40
2023-02-19T19:41:05.247Z,11.40
2023-02-19T19:43:32.898Z,11.40
2023-02-19T19:46:00.709Z,11.40
2023-02-19T19:48:27.669Z,11.40
2023-02-19T19:50:56.702Z,11.30
2023-02-19T19:53:23.956Z,11.30
2023-02-19T19:55:50.686Z,11.40
2023-02-19T19:58:21.884Z,11.30
2023-02-19T20:00:48.675Z,11.30
2023-02-19T20:03:15.373Z,11.30
2023-02-19T20:05:42.149Z,11.30
2023-02-19T20:08:08.835Z,11.30
2023-02-19T20:10:35.518Z,11.30
2023-02-19T20:13:02.171Z,11.30
2023-02-19T20:15:28.818Z,11.30
2023-02-19T20:17:55.511Z,11.20
2023-02-19T20:20:22.754Z,11.20
2023-02-19T20:22:51.729Z,11.20
2023-02-19T20:25:19.806Z,11.30
2023-02-19T20:27:48.339Z,11.20
2023-02-19T20:30:16.659Z,11.20
2023-02-19T20:32:43.984Z,11.20
2023-02-19T20:35:11.304Z,11.20
2023-02-19T20:37:38.937Z,11.20
2023-02-19T20:40:06.754Z,11.20
2023-02-19T20:42:33.480Z,11.20
2023-02-19T20:45:00.353Z,11.20
2023-02-19T20:47:27.882Z,11.20
2023-02-19T20:49:54.654Z,11.20
2023-02-19T20:52:21.697Z,11.20
2023-02-19T20:54:48.352Z,11.20
2023-02-19T20:57:15.081Z,11.20
2023-02-19T20:59:43.951Z,11.20
2023-02-19T21:02:24.436Z,11.20
2023-02-19T21:04:51.192Z,11.20
2023-02-19T21:07:17.839Z,11.20
2023-02-19T21:09:44.562Z,11.10
2023-02-19T21:12:11.902Z,11.10
2023-02-19T21:14:39.589Z,11.10
2023-02-19T21:17:06.484Z,11.10
2023-02-19T21:19:33.180Z,11.10
2023-02-19T21:21:59.818Z,11.10
2023-02-19T21:24:26.536Z,11.00
2023-02-19T21:26:53.233Z,11.00
2023-02-19T21:29:21.754Z,11.10
2023-02-19T21:31:51.386Z,11.00
2023-02-19T21:34:21.297Z,11.00
2023-02-19T21:36:48.092Z,11.00
2023-02-19T21:39:17.534Z,11.00
2023-02-19T21:41:44.362Z,11.00
2023-02-19T21:44:11.258Z,11.00
2023-02-19T21:46:38.020Z,10.90
2023-02-19T21:49:04.812Z,11.00
2023-02-19T21:51:32.573Z,10.90
2023-02-19T21:53:59.784Z,10.90
2023-02-19T21:56:29.355Z,10.90
2023-02-19T21:58:56.631Z,10.90
2023-02-19T22:01:25.424Z,10.80
2023-02-19T22:03:52.231Z,10.80
2023-02-19T22:06:21.303Z,10.80
2023-02-19T22:08:48.197Z,10.80
2023-02-19T22:11:14.829Z,10.80
2023-02-19T22:13:41.672Z,10.80
2023-02-19T22:16:08.331Z,10.80
2023-02-19T22:18:35.163Z,10.70
2023-02-19T22:21:03.810Z,10.80
2023-02-19T22:23:31.003Z,10.70
2023-02-19T22:25:58.005Z,10.70
2023-02-19T22:28:24.630Z,10.70
2023-02-19T22:30:51.249Z,10.70
2023-02-19T22:33:18.038Z,10.70
2023-02-19T22:35:44.663Z,10.70
2023-02-19T22:38:11.578Z,10.60
2023-02-19T22:40:38.270Z,10.60
2023-02-19T22:43:04.946Z,10.60
2023-02-19T22:45:31.700Z,10.60
2023-02-19T22:47:58.589Z,10.60
2023-02-19T22:50:26.372Z,10.60
2023-02-19T22:52:55.832Z,10.50
2023-02-19T22:55:22.457Z,10.50
2023-02-19T22:57:49.199Z,10.50
2023-02-19T23:00:19.207Z,10.50
2023-02-19T23:02:48.125Z,10.50
2023-02-19T23:05:16.012Z,10.50
2023-02-19T23:07:45.881Z,10.40
2023-02-19T23:10:13.366Z,10.40
2023-02-19T23:12:41.020Z,10.40
2023-02-19T23:15:09.104Z,10.40
2023-02-19T23:17:35.792Z,10.30
2023-02-19T23:20:03.100Z,10.30
2023-02-19T23:22:29.914Z,10.30
2023-02-19T23:24:56.978Z,10.30
2023-02-19T23:27:24.140Z,10.30
2023-02-19T23:29:50.937Z,10.30
2023-02-19T23:32:20.839Z,10.20
2023-02-19T23:34:48.309Z,10.20
2023-02-19T23:37:15.317Z,10.20
2023-02-19T23:39:42.076Z,10.10
2023-02-19T23:42:14.447Z,10.10
2023-02-19T23:44:41.132Z,10.10
2023-02-19T23:47:07.832Z,10.10
2023-02-19T23:49:34.523Z,10.10
2023-02-19T23:52:01.128Z,10.10
2023-02-19T23:54:27.828Z,10.10
2023-02-19T23:56:55.647Z,10.10
2023-02-19T23:59:22.372Z,10.10
